createdAt,value
2023-03-26T00:04:31.772Z,13.27
2023-03-26T00:07:10.399Z,22.00
2023-03-26T00:09:40.344Z,20.75
2023-03-26T00:14:55.994Z,16.52
2023-03-26T00:17:31.043Z,17.73
2023-03-26T00:36:38.763Z,22.42
2023-03-26T00:44:34.442Z,19.67
2023-03-26T00:47:05.499Z,14.02
2023-03-26T00:50:00.906Z,17.92
2023-03-26T00:52:36.358Z,21.75
2023-03-26T00:55:12.261Z,18.38
2023-03-26T01:01:41.498Z,20.92
2023-03-26T01:04:35.347Z,18.75
2023-03-26T01:07:10.049Z,17.42
2023-03-26T01:09:43.100Z,17.02
2023-03-26T01:12:16.179Z,17.90
2023-03-26T01:14:44.335Z,18.95
2023-03-26T01:17:12.996Z,18.10
2023-03-26T01:19:52.209Z,18.02
2023-03-26T01:22:25.261Z,18.88
2023-03-26T01:24:54.129Z,20.13
2023-03-26T01:27:27.356Z,17.35
2023-03-26T01:29:58.111Z,17.48
2023-03-26T01:32:33.206Z,20.90
2023-03-26T01:35:06.845Z,15.82
2023-03-26T01:37:49.552Z,18.50
2023-03-26T01:40:26.133Z,14.00
2023-03-26T01:43:04.458Z,26.15
2023-03-26T01:45:36.711Z,22.80
2023-03-26T01:48:04.801Z,18.55
2023-03-26T01:50:32.222Z,18.00
2023-03-26T01:52:59.142Z,17.42
2023-03-26T01:55:35.786Z,19.00
2023-03-26T01:58:35.121Z,19.67
2023-03-26T02:01:27.477Z,25.63
2023-03-26T02:04:13.819Z,15.98
2023-03-26T02:06:48.495Z,21.10
2023-03-26T02:09:22.694Z,21.33
2023-03-26T02:11:50.866Z,22.70
2023-03-26T02:14:18.213Z,28.65
2023-03-26T02:16:47.306Z,20.40
2023-03-26T02:19:22.096Z,15.48
2023-03-26T02:21:51.626Z,22.45
2023-03-26T02:24:22.610Z,26.08
2023-03-26T02:26:56.430Z,20.25
2023-03-26T02:29:23.428Z,18.90
2023-03-26T02:31:56.626Z,16.37
2023-03-26T02:34:23.511Z,21.55
2023-03-26T02:36:57.358Z,23.13
2023-03-26T02:39:29.489Z,21.15
2023-03-26T02:41:56.379Z,23.55
2023-03-26T02:44:26.480Z,20.33
2023-03-26T02:46:54.316Z,15.25
2023-03-26T02:49:21.653Z,19.60
2023-03-26T02:51:48.417Z,17.70
2023-03-26T02:54:17.217Z,23.35
2023-03-26T02:56:44.439Z,20.77
2023-03-26T02:59:11.503Z,18.20
2023-03-26T03:01:43.485Z,20.87
2023-03-26T03:04:14.590Z,25.63
2023-03-26T03:06:41.611Z,20.27
2023-03-26T03:09:09.180Z,17.57
2023-03-26T03:11:40.357Z,18.55
2023-03-26T03:14:07.820Z,14.50
2023-03-26T03:16:34.945Z,12.73
2023-03-26T03:19:02.245Z,16.43
2023-03-26T03:21:29.930Z,21.20
2023-03-26T03:24:00.195Z,17.92
2023-03-26T03:26:28.090Z,11.07
2023-03-26T03:28:59.213Z,15.18
2023-03-26T03:31:27.035Z,18.55
2023-03-26T03:36:24.446Z,10.50
2023-03-26T03:38:51.723Z,16.65
2023-03-26T03:41:18.949Z,12.35
2023-03-26T03:43:48.987Z,10.87
2023-03-26T03:46:16.046Z,12.98
2023-03-26T03:48:48.615Z,14.53
2023-03-26T03:51:31.331Z,15.05
2023-03-26T03:54:01.141Z,13.50
2023-03-26T03:56:31.453Z,15.32
2023-03-26T03:58:58.723Z,13.27
2023-03-26T04:01:25.936Z,12.35
2023-03-26T04:03:53.787Z,12.48
2023-03-26T04:08:47.842Z,12.77
2023-03-26T04:11:16.257Z,14.50
2023-03-26T04:13:47.830Z,16.40
2023-03-26T04:16:17.721Z,17.40
2023-03-26T04:18:46.738Z,13.55
2023-03-26T04:21:23.669Z,14.07
2023-03-26T04:23:54.554Z,15.30
2023-03-26T04:26:22.656Z,15.95
2023-03-26T04:28:55.576Z,13.57
2023-03-26T04:31:29.619Z,15.95
2023-03-26T04:34:26.074Z,13.73
2023-03-26T04:36:56.918Z,15.20
2023-03-26T04:39:24.428Z,17.65
2023-03-26T04:41:52.726Z,19.45
2023-03-26T04:44:22.750Z,18.02
2023-03-26T04:46:55.971Z,20.45
2023-03-26T04:49:23.226Z,19.73
2023-03-26T04:51:50.461Z,12.75
2023-03-26T04:54:36.921Z,16.27
2023-03-26T04:57:15.165Z,13.10
2023-03-26T04:59:44.100Z,11.32
2023-03-26T05:02:13.284Z,20.13
2023-03-26T05:04:40.789Z,14.02
2023-03-26T05:07:07.704Z,14.98
2023-03-26T05:09:34.754Z,13.73
2023-03-26T05:12:01.802Z,18.23
2023-03-26T05:14:31.082Z,16.13
2023-03-26T05:16:58.111Z,15.45
2023-03-26T05:19:24.971Z,13.20
2023-03-26T05:21:52.291Z,16.15
2023-03-26T05:24:22.677Z,10.82
2023-03-26T05:26:50.244Z,16.75
2023-03-26T05:29:19.087Z,12.43
2023-03-26T05:31:52.691Z,16.20
2023-03-26T05:34:21.179Z,12.30
2023-03-26T05:36:49.143Z,11.57
2023-03-26T05:41:43.158Z,15.00
2023-03-26T05:44:10.330Z,13.60
2023-03-26T05:46:37.576Z,13.80
2023-03-26T05:49:04.364Z,13.80
2023-03-26T05:51:34.059Z,14.23
2023-03-26T05:54:03.508Z,10.98
2023-03-26T05:56:30.665Z,12.98
2023-03-26T05:58:57.709Z,13.17
2023-03-26T06:01:25.939Z,13.90
2023-03-26T06:03:56.347Z,15.85
2023-03-26T06:06:24.255Z,14.05
2023-03-26T06:09:01.745Z,13.98
2023-03-26T06:11:29.205Z,14.10
2023-03-26T06:13:56.180Z,16.10
2023-03-26T06:16:26.504Z,18.60
2023-03-26T06:18:57.246Z,17.30
2023-03-26T06:21:25.886Z,9.95
2023-03-26T06:23:53.845Z,17.35
2023-03-26T06:33:55.375Z,16.00
2023-03-26T06:36:24.069Z,17.05
2023-03-26T06:38:52.773Z,20.42
2023-03-26T06:44:00.113Z,18.38
2023-03-26T06:46:30.061Z,21.90
2023-03-26T06:49:11.484Z,14.45
2023-03-26T06:54:31.908Z,20.07
2023-03-26T06:57:01.580Z,15.73
2023-03-26T06:59:31.379Z,14.32
2023-03-26T07:01:58.160Z,13.95
2023-03-26T07:04:31.367Z,20.38
2023-03-26T07:07:18.319Z,17.45
2023-03-26T07:09:46.471Z,15.50
2023-03-26T07:15:22.554Z,14.57
2023-03-26T07:23:47.757Z,13.07
2023-03-26T07:26:41.868Z,18.98
2023-03-26T07:29:27.342Z,11.27
2023-03-26T07:32:41.425Z,14.18
2023-03-26T07:38:42.167Z,12.68
2023-03-26T07:41:56.671Z,18.60
2023-03-26T07:45:01.844Z,19.35
2023-03-26T07:47:39.287Z,15.65
2023-03-26T07:56:06.703Z,17.63
2023-03-26T07:58:58.343Z,15.85
2023-03-26T08:01:51.277Z,13.82
2023-03-26T08:04:57.050Z,15.95
2023-03-26T08:07:42.712Z,13.50
2023-03-26T08:10:43.535Z,14.82
2023-03-26T08:13:35.278Z,13.80
2023-03-26T08:16:29.463Z,19.10
2023-03-26T08:19:38.986Z,14.93
2023-03-26T08:22:26.549Z,16.30
2023-03-26T08:25:20.157Z,20.08
2023-03-26T08:32:10.453Z,13.00
2023-03-26T09:48:42.842Z,9.38
2023-03-26T09:55:09.781Z,5.70
2023-03-26T09:58:14.484Z,4.28
2023-03-26T10:01:49.753Z,4.30
2023-03-26T10:04:39.788Z,9.52
2023-03-26T10:07:31.376Z,7.13
2023-03-26T10:19:25.546Z,6.07
2023-03-26T10:25:47.890Z,3.65
2023-03-26T10:28:37.086Z,2.53
2023-03-26T10:31:06.728Z,5.00
2023-03-26T10:33:58.558Z,3.47
2023-03-26T10:36:33.965Z,3.40
2023-03-26T10:39:11.664Z,3.38
2023-03-26T10:42:22.808Z,3.88
2023-03-26T10:45:07.881Z,1.38
2023-03-26T10:48:04.688Z,3.22
2023-03-26T10:50:51.164Z,2.88
2023-03-26T10:56:29.951Z,3.08
2023-03-26T10:58:59.661Z,2.28
2023-03-26T11:02:11.493Z,4.38
2023-03-26T11:04:55.397Z,7.03
2023-03-26T11:07:29.825Z,3.17
2023-03-26T11:10:04.250Z,5.10
2023-03-26T11:12:57.295Z,2.45
2023-03-26T11:16:16.227Z,2.97
2023-03-26T11:18:58.476Z,4.68
2023-03-26T11:21:42.709Z,7.47
2023-03-26T11:24:23.012Z,3.78
2023-03-26T11:27:15.997Z,7.65
2023-03-26T11:29:57.835Z,3.67
2023-03-26T11:32:31.637Z,3.50
2023-03-26T11:35:40.266Z,4.13
2023-03-26T11:41:04.859Z,3.17
2023-03-26T11:43:42.200Z,6.43
2023-03-26T11:46:16.479Z,4.07
2023-03-26T11:48:50.894Z,4.50
2023-03-26T11:51:48.176Z,4.88
2023-03-26T11:54:18.698Z,2.70
2023-03-26T11:57:05.089Z,2.85
2023-03-26T11:59:55.701Z,2.67
2023-03-26T12:02:35.934Z,6.75
2023-03-26T12:05:20.940Z,2.83
2023-03-26T12:07:55.352Z,3.42
2023-03-26T12:10:43.087Z,6.85
2023-03-26T12:13:54.310Z,3.58
2023-03-26T12:19:06.382Z,68.63
2023-03-26T12:22:00.869Z,5.20
2023-03-26T12:24:35.867Z,5.45
2023-03-26T12:27:24.898Z,4.50
2023-03-26T12:30:20.680Z,6.00
2023-03-26T12:32:49.271Z,4.20
2023-03-26T12:35:28.170Z,9.02
2023-03-26T12:37:58.235Z,2.35
2023-03-26T12:40:34.466Z,8.73
2023-03-26T12:44:55.848Z,4.80
2023-03-26T12:47:55.533Z,2.70
2023-03-26T12:49:22.500Z,1.40
2023-03-26T12:52:21.206Z,2.75
2023-03-26T12:55:14.173Z,2.85
2023-03-26T12:58:00.138Z,3.55
2023-03-26T13:00:55.725Z,11.18
2023-03-26T13:03:52.944Z,4.18
2023-03-26T13:07:00.544Z,3.40
2023-03-26T13:09:43.731Z,4.68
2023-03-26T13:12:29.988Z,4.93
2023-03-26T13:15:09.705Z,3.85
2023-03-26T13:18:21.717Z,3.67
2023-03-26T13:20:57.423Z,3.20
2023-03-26T13:23:30.603Z,2.67
2023-03-26T13:26:26.922Z,4.13
2023-03-26T13:29:24.262Z,3.28
2023-03-26T13:32:07.415Z,2.15
2023-03-26T13:34:48.804Z,2.17
2023-03-26T13:37:38.962Z,2.03
2023-03-26T13:40:31.698Z,3.55
2023-03-26T13:43:30.971Z,2.70
2023-03-26T13:46:09.722Z,2.80
2023-03-26T13:48:51.962Z,2.78
2023-03-26T13:51:26.615Z,3.05
2023-03-26T13:54:03.658Z,1.98
2023-03-26T13:56:42.183Z,1.47
2023-03-26T13:59:28.129Z,3.28
2023-03-26T14:02:00.452Z,2.00
2023-03-26T14:04:34.138Z,2.13
2023-03-26T14:07:22.769Z,1.83
2023-03-26T14:09:59.075Z,1.55
2023-03-26T14:15:47.118Z,5.32
2023-03-26T14:18:47.965Z,5.28
2023-03-26T14:27:15.915Z,4.80
2023-03-26T14:29:56.914Z,2.60
2023-03-26T14:32:58.044Z,6.32
2023-03-26T14:38:50.054Z,2.03
2023-03-26T14:41:41.957Z,10.95
2023-03-26T14:45:06.214Z,1.85
2023-03-26T14:50:47.893Z,1.77
2023-03-26T14:53:34.727Z,1.75
2023-03-26T14:56:39.087Z,0.88
2023-03-26T14:59:19.695Z,3.95
2023-03-26T15:02:21.015Z,3.08
2023-03-26T15:05:20.282Z,1.05
2023-03-26T15:08:11.814Z,1.85
2023-03-26T15:11:12.114Z,1.17
2023-03-26T15:13:46.305Z,2.65
2023-03-26T15:16:47.071Z,1.77
2023-03-26T15:19:56.228Z,0.90
2023-03-26T15:23:00.613Z,2.42
2023-03-26T15:25:46.195Z,1.20
2023-03-26T15:28:40.450Z,2.90
2023-03-26T15:31:11.040Z,1.70
2023-03-26T15:34:15.110Z,2.75
2023-03-26T15:37:12.360Z,2.50
2023-03-26T15:40:08.554Z,2.60
2023-03-26T15:42:58.190Z,3.15
2023-03-26T15:45:35.968Z,1.95
2023-03-26T15:50:57.890Z,2.80
2023-03-26T15:53:36.879Z,3.50
2023-03-26T15:56:22.721Z,1.90
2023-03-26T15:59:16.529Z,3.25
2023-03-26T16:02:06.800Z,1.40
2023-03-26T16:05:09.679Z,1.33
2023-03-26T16:08:26.466Z,1.83
2023-03-26T16:10:58.980Z,1.60
2023-03-26T16:13:35.125Z,1.90
2023-03-26T16:16:04.623Z,1.20
2023-03-26T16:18:41.416Z,0.80
2023-03-26T16:21:36.797Z,1.40
2023-03-26T16:24:03.557Z,3.85
2023-03-26T16:26:51.690Z,8.60
2023-03-26T16:29:28.191Z,3.75
2023-03-26T16:32:10.058Z,1.70
2023-03-26T16:35:15.878Z,0.88
2023-03-26T16:37:50.285Z,1.70
2023-03-26T16:40:17.319Z,4.38
2023-03-26T16:42:53.851Z,1.83
2023-03-26T16:45:23.692Z,2.53
2023-03-26T16:48:25.741Z,2.78
2023-03-26T16:50:59.183Z,2.17
2023-03-26T16:53:46.647Z,2.35
2023-03-26T16:56:32.175Z,1.50
2023-03-26T16:59:09.607Z,1.40
2023-03-26T17:02:05.193Z,3.33
2023-03-26T17:04:33.701Z,2.55
2023-03-26T17:07:14.015Z,2.67
2023-03-26T17:09:44.218Z,1.98
2023-03-26T17:12:35.094Z,1.05
2023-03-26T17:15:11.137Z,1.83
2023-03-26T17:17:56.834Z,1.75
2023-03-26T17:20:44.711Z,2.72
2023-03-26T17:23:20.456Z,2.58
2023-03-26T17:26:03.187Z,3.33
2023-03-26T17:29:01.889Z,1.40
2023-03-26T17:31:37.900Z,2.95
2023-03-26T17:34:32.946Z,1.83
2023-03-26T17:37:01.209Z,4.00
2023-03-26T17:39:40.041Z,4.93
2023-03-26T17:42:30.886Z,2.45
2023-03-26T17:44:59.314Z,3.45
2023-03-26T17:47:26.184Z,2.83
2023-03-26T17:50:11.574Z,2.93
2023-03-26T17:53:12.149Z,4.57
2023-03-26T18:01:40.816Z,4.40
2023-03-26T18:04:15.928Z,8.07
2023-03-26T18:06:51.962Z,8.50
2023-03-26T18:10:02.487Z,10.30
2023-03-26T18:13:09.840Z,10.68
2023-03-26T18:21:09.177Z,9.02
2023-03-26T18:23:44.711Z,13.98
2023-03-26T18:26:16.409Z,10.70
2023-03-26T18:28:46.166Z,11.77
2023-03-26T18:31:41.332Z,13.82
2023-03-26T18:34:15.332Z,11.68
2023-03-26T18:36:41.965Z,14.38
2023-03-26T18:39:13.571Z,10.98
2023-03-26T18:41:43.093Z,13.75
2023-03-26T18:44:17.848Z,15.32
2023-03-26T18:46:44.997Z,16.55
2023-03-26T18:49:16.726Z,15.83
2023-03-26T18:51:56.171Z,15.32
2023-03-26T18:54:25.015Z,12.48
2023-03-26T18:56:52.793Z,18.15
2023-03-26T19:01:59.409Z,13.05
2023-03-26T19:04:28.705Z,7.95
2023-03-26T19:06:57.031Z,13.98
2023-03-26T19:09:31.640Z,14.27
2023-03-26T19:12:07.680Z,12.35
2023-03-26T19:14:50.318Z,17.67
2023-03-26T19:17:19.777Z,15.48
2023-03-26T19:19:48.259Z,15.88
2023-03-26T19:22:17.258Z,14.25
2023-03-26T19:24:44.105Z,16.65
2023-03-26T19:27:12.142Z,13.93
2023-03-26T19:29:38.993Z,12.90
2023-03-26T19:32:16.095Z,12.60
2023-03-26T19:34:45.331Z,14.32
2023-03-26T19:37:21.617Z,14.13
2023-03-26T19:39:52.657Z,11.27
2023-03-26T19:42:27.285Z,14.35
2023-03-26T19:45:16.519Z,11.18
2023-03-26T19:47:52.039Z,19.25
2023-03-26T19:50:26.675Z,11.68
2023-03-26T19:53:16.793Z,18.40
2023-03-26T19:55:53.853Z,18.52
2023-03-26T19:58:20.551Z,9.70
2023-03-26T20:00:50.126Z,18.23
2023-03-26T20:03:24.380Z,15.88
2023-03-26T20:05:51.094Z,8.00
